Time;durP1;ratioP1;P1;durP2;ratioP2;P2;SDS_P1;SDS_P2;PMS_P1;PMS_P2;Temp;Humidity;BMP_temperature;BMP_pressure;BME280_temperature;BME280_humidity;BME280_pressure;Samples;Min_cycle;Max_cycle;Signal;HPM_P1;HPM_P2
2023/01/25 00:01:19;;;;;;;47.80;18.30;;;;;2.70;97795.00;;;;8397112;28;20277;-82
2023/01/25 00:05:26;;;;;;;47.10;16.30;;;;;2.60;97792.00;;;;8397626;28;20287;-82
2023/01/25 00:09:29;;;;;;;43.37;16.93;;;;;2.70;97795.00;;;;8397312;28;20305;-85
2023/01/25 00:13:33;;;;;;;38.17;15.70;;;;;2.60;97792.00;;;;8401919;28;20222;-85
2023/01/25 00:17:38;;;;;;;50.33;16.83;;;;;2.60;97792.00;;;;8404535;28;20582;-82
2023/01/25 00:21:43;;;;;;;54.67;18.43;;;;;2.60;97795.00;;;;8402594;28;20210;-82
2023/01/25 00:25:46;;;;;;;52.37;17.67;;;;;2.60;97788.00;;;;8403400;28;20204;-82
2023/01/25 00:29:56;;;;;;;54.27;17.50;;;;;2.50;97782.00;;;;8403135;28;20267;-82
2023/01/25 00:34:06;;;;;;;51.97;17.60;;;;;2.50;97783.00;;;;8402556;28;20352;-82
2023/01/25 00:38:29;;;;;;;42.97;14.63;;;;;2.50;97781.00;;;;8403240;28;20222;-82
2023/01/25 00:42:33;;;;;;;60.33;17.83;;;;;2.40;97781.00;;;;8401652;28;20188;-82
2023/01/25 00:46:36;;;;;;;59.80;18.77;;;;;2.40;97767.00;;;;8402612;28;20191;-82
2023/01/25 00:50:41;;;;;;;57.77;18.87;;;;;2.40;97769.00;;;;8403559;28;20212;-83
2023/01/25 00:54:47;;;;;;;53.87;19.47;;;;;2.40;97753.00;;;;8402014;28;20223;-83
2023/01/25 00:58:50;;;;;;;58.37;17.87;;;;;2.40;97765.00;;;;8402154;28;20578;-82
2023/01/25 01:02:56;;;;;;;47.17;16.17;;;;;2.40;97765.00;;;;8402310;28;20221;-82
2023/01/25 01:07:01;;;;;;;51.77;15.93;;;;;2.40;97758.00;;;;8401097;28;20218;-82
2023/01/25 01:11:07;;;;;;;50.80;17.10;;;;;2.40;97767.00;;;;8401516;28;20196;-83
2023/01/25 01:15:11;;;;;;;55.53;17.47;;;;;2.40;97771.00;;;;8397519;28;20218;-84
2023/01/25 01:19:15;;;;;;;53.23;18.10;;;;;2.30;97770.00;;;;8400623;28;20195;-84
2023/01/25 01:23:18;;;;;;;44.20;17.07;;;;;2.20;97767.00;;;;8401824;28;20221;-84
2023/01/25 01:27:24;;;;;;;54.27;18.00;;;;;2.20;97772.00;;;;8401007;28;20191;-84
2023/01/25 01:31:27;;;;;;;47.77;16.60;;;;;2.20;97778.00;;;;8399951;28;20207;-84
2023/01/25 01:35:33;;;;;;;57.70;20.00;;;;;2.20;97777.00;;;;8400164;28;20224;-85
2023/01/25 01:39:38;;;;;;;59.03;19.43;;;;;2.10;97785.00;;;;8401539;28;20216;-84
2023/01/25 01:43:45;;;;;;;59.43;18.37;;;;;2.10;97779.00;;;;8400241;28;20193;-84
2023/01/25 01:47:48;;;;;;;64.87;19.13;;;;;2.10;97778.00;;;;8396685;28;20229;-84
2023/01/25 01:51:57;;;;;;;63.53;17.90;;;;;2.10;97780.00;;;;8401890;28;20209;-84
2023/01/25 01:56:10;;;;;;;48.30;17.03;;;;;2.10;97778.00;;;;8399423;28;20621;-86
2023/01/25 02:00:18;;;;;;;62.80;20.23;;;;;2.10;97775.00;;;;8399818;28;20198;-85
2023/01/25 02:04:24;;;;;;;65.27;20.77;;;;;2.10;97777.00;;;;8399778;28;20599;-86
2023/01/25 02:08:32;;;;;;;66.53;21.00;;;;;2.10;97775.00;;;;8400532;28;20254;-85
2023/01/25 02:12:36;;;;;;;59.80;18.33;;;;;2.10;97777.00;;;;8399006;28;20217;-84
2023/01/25 02:16:45;;;;;;;61.43;18.67;;;;;2.10;97775.00;;;;8400025;28;20626;-86
2023/01/25 02:20:54;;;;;;;65.73;19.43;;;;;2.10;97776.00;;;;8398909;28;20239;-86
2023/01/25 02:25:05;;;;;;;68.87;19.13;;;;;2.10;97774.00;;;;8399015;28;20272;-83
2023/01/25 02:29:10;;;;;;;52.00;16.53;;;;;2.10;97779.00;;;;8398004;28;20344;-83
2023/01/25 02:33:13;;;;;;;84.67;21.27;;;;;2.00;97769.00;;;;8397327;28;20231;-83
2023/01/25 02:37:20;;;;;;;82.97;23.33;;;;;2.00;97778.00;;;;8398910;28;20198;-83
2023/01/25 02:41:30;;;;;;;73.50;20.23;;;;;2.00;97772.00;;;;8398795;28;20251;-84
2023/01/25 02:45:36;;;;;;;62.37;18.63;;;;;2.00;97773.00;;;;8397584;28;20179;-84
2023/01/25 02:49:39;;;;;;;68.77;19.87;;;;;2.00;97773.00;;;;8398796;28;20639;-85
2023/01/25 02:53:42;;;;;;;51.63;16.73;;;;;2.00;97779.00;;;;8398469;28;20282;-85
2023/01/25 02:57:53;;;;;;;51.40;16.77;;;;;2.00;97775.00;;;;8395208;28;20191;-84
2023/01/25 03:02:01;;;;;;;59.03;18.07;;;;;1.90;97769.00;;;;8405233;22;20236;-83
2023/01/25 03:06:04;;;;;;;54.17;16.43;;;;;2.00;97773.00;;;;8298140;28;20326;-84
2023/01/25 03:10:09;;;;;;;48.53;15.77;;;;;2.00;97769.00;;;;8303780;28;20294;-83
2023/01/25 03:14:13;;;;;;;48.87;15.03;;;;;2.00;97758.00;;;;8301045;28;20870;-83
2023/01/25 03:18:16;;;;;;;52.43;15.27;;;;;2.00;97756.00;;;;8313112;28;20576;-85
2023/01/25 03:22:19;;;;;;;45.10;14.67;;;;;1.90;97761.00;;;;8307220;28;20203;-85
2023/01/25 03:26:24;;;;;;;55.20;17.17;;;;;1.90;97754.00;;;;8310461;28;20200;-86
2023/01/25 03:30:34;;;;;;;61.23;15.83;;;;;1.90;97745.00;;;;8312890;28;20752;-86
2023/01/25 03:34:40;;;;;;;52.63;15.63;;;;;1.90;97739.00;;;;8306953;28;20637;-87
2023/01/25 03:38:46;;;;;;;52.13;15.97;;;;;1.90;97741.00;;;;8311236;28;20629;-87
2023/01/25 03:42:49;;;;;;;47.77;14.73;;;;;1.90;97730.00;;;;8310861;28;20204;-85
2023/01/25 03:46:54;;;;;;;52.43;14.67;;;;;1.80;97733.00;;;;8301619;28;20296;-86
2023/01/25 03:51:00;;;;;;;61.63;18.20;;;;;1.80;97739.00;;;;8307496;28;20202;-86
2023/01/25 03:55:07;;;;;;;53.20;16.10;;;;;1.80;97747.00;;;;8315253;28;20235;-87
2023/01/25 03:59:12;;;;;;;52.33;14.63;;;;;1.80;97735.00;;;;8307140;28;20212;-85
2023/01/25 04:03:18;;;;;;;46.20;15.00;;;;;1.70;97742.00;;;;8304818;28;20236;-88
2023/01/25 04:07:24;;;;;;;55.63;15.50;;;;;1.70;97725.00;;;;8311939;28;20203;-87
2023/01/25 04:11:27;;;;;;;53.57;15.83;;;;;1.70;97717.00;;;;8307108;28;20683;-86
2023/01/25 04:15:32;;;;;;;60.87;16.80;;;;;1.80;97710.00;;;;8308182;28;20680;-86
2023/01/25 04:19:41;;;;;;;47.37;15.03;;;;;1.80;97718.00;;;;8312000;28;20324;-86
2023/01/25 04:23:44;;;;;;;50.27;15.03;;;;;1.70;97707.00;;;;8314038;28;20205;-87
2023/01/25 04:27:47;;;;;;;50.40;15.63;;;;;1.80;97701.00;;;;8311119;28;20497;-86
2023/01/25 04:31:50;;;;;;;52.97;16.67;;;;;1.70;97697.00;;;;8308553;28;20619;-82
2023/01/25 04:35:56;;;;;;;54.43;17.23;;;;;1.70;97688.00;;;;8309369;28;20251;-86
2023/01/25 04:40:01;;;;;;;54.93;17.03;;;;;1.80;97690.00;;;;8305795;28;20248;-83
2023/01/25 04:44:05;;;;;;;64.10;17.60;;;;;1.70;97674.00;;;;8303433;28;20606;-83
2023/01/25 04:48:09;;;;;;;53.90;15.33;;;;;1.70;97676.00;;;;8303708;28;20345;-83
2023/01/25 04:52:26;;;;;;;56.33;16.53;;;;;1.80;97674.00;;;;8311651;28;20244;-82
2023/01/25 04:56:29;;;;;;;48.67;16.00;;;;;1.80;97661.00;;;;8310611;28;20227;-83
2023/01/25 05:00:33;;;;;;;59.70;15.10;;;;;1.80;97672.00;;;;8295405;28;20248;-82
2023/01/25 05:04:36;;;;;;;56.73;16.30;;;;;1.80;97672.00;;;;8318746;28;20239;-82
2023/01/25 05:08:41;;;;;;;61.30;16.60;;;;;1.80;97659.00;;;;8316437;28;20209;-81
2023/01/25 05:12:46;;;;;;;55.23;16.13;;;;;1.80;97668.00;;;;8321359;28;20656;-82
2023/01/25 05:16:52;;;;;;;60.60;16.60;;;;;1.90;97670.00;;;;8317363;28;20242;-80
2023/01/25 05:20:57;;;;;;;56.77;16.40;;;;;1.90;97653.00;;;;8316477;28;20233;-81
2023/01/25 05:25:02;;;;;;;59.60;17.00;;;;;1.90;97655.00;;;;8315895;28;20250;-80
2023/01/25 05:29:05;;;;;;;57.00;16.03;;;;;1.90;97650.00;;;;8316515;28;20258;-80
2023/01/25 05:33:10;;;;;;;51.70;16.73;;;;;2.00;97646.00;;;;8311282;28;20203;-80
2023/01/25 05:37:15;;;;;;;55.97;16.47;;;;;2.10;97645.00;;;;8314424;28;20306;-80
2023/01/25 05:41:22;;;;;;;57.53;16.83;;;;;2.20;97647.00;;;;8305502;28;20227;-81
2023/01/25 05:45:26;;;;;;;55.50;16.00;;;;;2.20;97647.00;;;;8309303;28;20660;-81
2023/01/25 05:49:32;;;;;;;53.60;16.70;;;;;2.20;97646.00;;;;8311006;28;20657;-81
2023/01/25 05:53:35;;;;;;;56.47;16.13;;;;;2.20;97643.00;;;;8322507;28;20209;-80
2023/01/25 05:57:45;;;;;;;58.00;14.93;;;;;2.30;97646.00;;;;8320410;28;20792;-80
2023/01/25 06:01:48;;;;;;;58.37;15.90;;;;;2.30;97638.00;;;;8320252;28;20247;-81
2023/01/25 06:05:55;;;;;;;59.33;18.23;;;;;2.30;97635.00;;;;8313255;28;20204;-79
2023/01/25 06:09:58;;;;;;;51.67;16.23;;;;;2.30;97628.00;;;;8314544;28;20209;-79
2023/01/25 06:14:02;;;;;;;59.57;16.70;;;;;2.30;97631.00;;;;8307408;28;20283;-78
2023/01/25 06:18:06;;;;;;;53.33;16.40;;;;;2.20;97633.00;;;;8315955;28;20200;-79
2023/01/25 06:22:10;;;;;;;53.03;16.20;;;;;2.20;97637.00;;;;8303088;28;20196;-78
2023/01/25 06:26:16;;;;;;;57.67;18.53;;;;;2.10;97640.00;;;;8318044;28;20262;-79
2023/01/25 06:30:21;;;;;;;57.57;16.50;;;;;2.10;97630.00;;;;8323299;28;20204;-79
2023/01/25 06:34:25;;;;;;;60.80;16.90;;;;;2.10;97633.00;;;;8333501;28;20551;-79
2023/01/25 06:38:28;;;;;;;59.53;17.17;;;;;2.10;97634.00;;;;8333422;28;20192;-80
2023/01/25 06:42:36;;;;;;;59.63;17.37;;;;;2.10;97638.00;;;;8332889;28;20196;-80
2023/01/25 06:46:46;;;;;;;66.40;18.30;;;;;2.10;97639.00;;;;8333394;28;20250;-80
2023/01/25 06:50:57;;;;;;;72.53;19.70;;;;;2.00;97638.00;;;;8332892;28;20181;-80
2023/01/25 06:55:00;;;;;;;62.50;17.63;;;;;1.90;97632.00;;;;8333577;28;20264;-80
2023/01/25 06:59:04;;;;;;;61.10;17.97;;;;;1.90;97626.00;;;;8332645;28;20202;-80
2023/01/25 07:03:12;;;;;;;66.73;17.57;;;;;1.90;97621.00;;;;8332848;28;20314;-79
2023/01/25 07:07:15;;;;;;;81.83;20.33;;;;;1.90;97623.00;;;;8332900;28;20291;-80
2023/01/25 07:11:18;;;;;;;60.30;17.97;;;;;1.90;97634.00;;;;8332488;28;20226;-81
2023/01/25 07:15:22;;;;;;;59.70;16.43;;;;;1.90;97630.00;;;;8329229;28;20231;-80
2023/01/25 07:19:27;;;;;;;70.83;19.07;;;;;1.90;97625.00;;;;8331205;28;20240;-86
2023/01/25 07:23:36;;;;;;;65.57;17.77;;;;;1.90;97624.00;;;;8332720;28;20200;-80
2023/01/25 07:27:41;;;;;;;49.53;15.53;;;;;2.10;97624.00;;;;8329554;28;20195;-88
2023/01/25 07:31:47;;;;;;;67.83;17.13;;;;;2.10;97618.00;;;;8331085;28;20184;-85
2023/01/25 07:35:54;;;;;;;61.43;16.10;;;;;2.20;97615.00;;;;8331969;28;20232;-87
2023/01/25 07:39:58;;;;;;;68.80;17.40;;;;;2.20;97613.00;;;;8331306;28;20204;-86
2023/01/25 07:44:05;;;;;;;59.83;16.40;;;;;2.30;97615.00;;;;8332505;28;20194;-86
2023/01/25 07:48:10;;;;;;;52.07;15.30;;;;;2.20;97611.00;;;;8331730;28;20695;-87
2023/01/25 07:52:17;;;;;;;60.23;17.30;;;;;2.30;97621.00;;;;8331474;28;20265;-88
2023/01/25 07:56:26;;;;;;;44.53;14.03;;;;;2.30;97617.00;;;;8331947;28;20232;-89
2023/01/25 08:00:29;;;;;;;68.37;15.77;;;;;2.40;97620.00;;;;8332808;28;20594;-92
2023/01/25 08:04:32;;;;;;;58.60;16.53;;;;;2.40;97618.00;;;;8330724;28;20255;-91
2023/01/25 08:08:41;;;;;;;62.47;17.13;;;;;2.50;97622.00;;;;8331095;28;20246;-90
2023/01/25 08:12:46;;;;;;;53.37;16.40;;;;;2.50;97620.00;;;;8329402;28;20258;-89
2023/01/25 08:16:51;;;;;;;47.80;15.07;;;;;2.60;97628.00;;;;8330023;28;20264;-90
2023/01/25 08:20:58;;;;;;;58.07;16.70;;;;;2.50;97616.00;;;;8330365;28;20234;-87
2023/01/25 08:25:04;;;;;;;44.83;15.10;;;;;2.40;97602.00;;;;8331418;28;20634;-88
2023/01/25 08:29:07;;;;;;;58.70;17.00;;;;;2.50;97614.00;;;;8330694;28;20245;-88
2023/01/25 08:33:11;;;;;;;53.30;16.67;;;;;2.50;97607.00;;;;8333356;28;20243;-84
2023/01/25 08:37:16;;;;;;;49.67;15.23;;;;;2.60;97617.00;;;;8336838;28;20234;-86
2023/01/25 08:41:25;;;;;;;51.20;16.83;;;;;2.60;97615.00;;;;8336701;28;20231;-86
2023/01/25 08:45:36;;;;;;;54.17;16.00;;;;;2.60;97616.00;;;;8337351;28;20213;-86
2023/01/25 08:49:42;;;;;;;53.23;15.07;;;;;2.50;97622.00;;;;8336704;28;20282;-87
2023/01/25 08:53:48;;;;;;;45.27;15.33;;;;;2.50;97623.00;;;;8337263;28;20188;-86
2023/01/25 08:57:52;;;;;;;52.17;16.23;;;;;2.50;97616.00;;;;8335735;28;20668;-86
2023/01/25 09:02:06;;;;;;;54.73;15.57;;;;;2.50;97618.00;;;;8337077;28;20469;-86
2023/01/25 09:06:13;;;;;;;51.90;15.93;;;;;2.50;97617.00;;;;8332554;28;20577;-85
2023/01/25 09:10:20;;;;;;;51.57;15.87;;;;;2.50;97607.00;;;;8336017;28;20195;-85
2023/01/25 09:14:26;;;;;;;48.97;14.77;;;;;2.60;97592.00;;;;8336679;28;20230;-84
2023/01/25 09:18:31;;;;;;;49.50;14.63;;;;;2.50;97587.00;;;;8336149;28;20233;-86
2023/01/25 09:22:34;;;;;;;57.40;16.47;;;;;2.50;97589.00;;;;8336147;28;20601;-87
2023/01/25 09:26:40;;;;;;;54.43;18.03;;;;;2.50;97588.00;;;;8335259;28;20231;-86
2023/01/25 09:30:56;;;;;;;55.80;16.53;;;;;2.50;97588.00;;;;8336113;28;20297;-89
2023/01/25 09:35:21;;;;;;;50.93;15.63;;;;;2.50;97585.00;;;;8333908;28;20228;-88
2023/01/25 09:39:24;;;;;;;55.93;15.97;;;;;2.50;97589.00;;;;8335408;28;20209;-89
2023/01/25 09:43:38;;;;;;;57.83;16.30;;;;;2.50;97585.00;;;;8335848;28;20209;-90
2023/01/25 09:47:54;;;;;;;49.23;15.50;;;;;2.50;97585.00;;;;8335176;28;20201;-90
2023/01/25 09:52:12;;;;;;;42.07;14.60;;;;;2.40;97578.00;;;;8335259;28;20637;-91
2023/01/25 09:56:23;;;;;;;56.90;17.47;;;;;2.40;97580.00;;;;8334718;28;20218;-90
2023/01/25 10:00:35;;;;;;;54.43;16.07;;;;;2.40;97574.00;;;;8335222;28;20275;-90
2023/01/25 10:04:42;;;;;;;51.17;15.70;;;;;2.40;97574.00;;;;8334214;28;20629;-88
2023/01/25 10:08:53;;;;;;;55.20;15.23;;;;;2.40;97563.00;;;;8334413;28;20199;-87
2023/01/25 10:12:58;;;;;;;47.23;15.23;;;;;2.50;97559.00;;;;8333882;28;20241;-88
2023/01/25 10:17:07;;;;;;;56.17;15.63;;;;;2.60;97562.00;;;;8332272;28;20311;-87
2023/01/25 10:21:18;;;;;;;44.80;15.13;;;;;2.60;97554.00;;;;8333498;28;20192;-89
2023/01/25 10:25:37;;;;;;;46.60;14.27;;;;;2.70;97553.00;;;;8332195;28;20193;-89
2023/01/25 10:29:40;;;;;;;45.03;16.43;;;;;2.70;97549.00;;;;8333732;28;20197;-88
2023/01/25 10:33:48;;;;;;;41.00;14.50;;;;;2.60;97544.00;;;;8333717;28;20197;-90
2023/01/25 10:37:53;;;;;;;57.63;16.53;;;;;2.60;97536.00;;;;8333893;28;20229;-91
2023/01/25 10:42:09;;;;;;;49.70;16.20;;;;;2.60;97530.00;;;;8332946;28;20248;-92
2023/01/25 10:46:19;;;;;;;51.23;16.10;;;;;2.60;97518.00;;;;8331593;28;20649;-90
2023/01/25 10:50:46;;;;;;;52.70;17.07;;;;;2.60;97510.00;;;;8333697;28;20246;-88
2023/01/25 10:55:11;;;;;;;46.47;14.73;;;;;2.60;97498.00;;;;8326830;28;20274;-85
2023/01/25 10:59:21;;;;;;;44.90;14.13;;;;;2.70;97499.00;;;;8332462;28;20196;-87
2023/01/25 11:03:36;;;;;;;51.80;15.83;;;;;2.80;97495.00;;;;8331803;28;20224;-88
2023/01/25 11:07:42;;;;;;;39.37;12.90;;;;;2.70;97484.00;;;;8332357;28;20285;-86
2023/01/25 11:11:56;;;;;;;46.30;14.13;;;;;2.70;97480.00;;;;8332517;28;20204;-90
2023/01/25 11:16:20;;;;;;;43.60;14.20;;;;;2.70;97475.00;;;;8333093;28;20221;-89
2023/01/25 11:20:23;;;;;;;40.63;14.20;;;;;2.80;97474.00;;;;8330169;28;20239;-82
2023/01/25 11:24:28;;;;;;;49.23;14.37;;;;;3.00;97459.00;;;;8331560;28;20201;-82
2023/01/25 11:28:32;;;;;;;43.90;14.80;;;;;2.90;97453.00;;;;8331484;28;20196;-83
2023/01/25 11:32:40;;;;;;;43.63;15.33;;;;;2.80;97456.00;;;;8332466;28;20508;-85
2023/01/25 11:37:11;;;;;;;39.50;14.10;;;;;2.70;97445.00;;;;8332520;28;20221;-86
2023/01/25 11:41:24;;;;;;;40.60;14.63;;;;;2.80;97443.00;;;;8332180;28;20192;-82
2023/01/25 11:46:01;;;;;;;44.03;13.93;;;;;3.00;97430.00;;;;8332175;28;20191;-86
2023/01/25 11:50:15;;;;;;;36.40;12.27;;;;;3.10;97429.00;;;;8330160;28;20196;-88
2023/01/25 11:54:56;;;;;;;38.33;13.40;;;;;3.10;97420.00;;;;8331767;28;20570;-87
2023/01/25 11:59:21;;;;;;;44.30;14.10;;;;;3.00;97423.00;;;;8325308;28;20224;-86
2023/01/25 12:04:09;;;;;;;38.00;13.17;;;;;2.80;97399.00;;;;8329714;28;20239;-87
2023/01/25 12:08:30;;;;;;;41.67;14.00;;;;;2.70;97386.00;;;;8336968;28;20202;-87
2023/01/25 12:12:44;;;;;;;42.73;14.37;;;;;2.70;97393.00;;;;8337202;28;20238;-90
2023/01/25 12:17:02;;;;;;;47.77;14.23;;;;;2.50;97380.00;;;;8338022;28;20265;-87
2023/01/25 12:21:17;;;;;;;41.57;14.70;;;;;2.50;97366.00;;;;8337383;28;20200;-83
2023/01/25 12:25:46;;;;;;;44.20;14.90;;;;;2.50;97366.00;;;;8338279;28;20270;-84
2023/01/25 12:29:55;;;;;;;44.33;14.17;;;;;2.60;97357.00;;;;8338421;28;20621;-84
2023/01/25 12:34:02;;;;;;;40.57;13.50;;;;;2.60;97349.00;;;;8338337;28;20641;-83
2023/01/25 12:38:12;;;;;;;39.13;13.67;;;;;2.50;97340.00;;;;8336997;28;20230;-80
2023/01/25 12:42:21;;;;;;;41.97;14.27;;;;;2.60;97340.00;;;;8337225;28;20628;-81
2023/01/25 12:46:31;;;;;;;38.53;12.80;;;;;2.60;97334.00;;;;8337623;28;20595;-78
2023/01/25 12:50:40;;;;;;;42.20;13.27;;;;;2.50;97321.00;;;;8334099;28;20203;-78
2023/01/25 12:54:45;;;;;;;45.80;14.67;;;;;2.40;97310.00;;;;8334970;28;20230;-78
2023/01/25 12:58:54;;;;;;;44.13;14.67;;;;;2.50;97303.00;;;;8336594;28;20230;-80
2023/01/25 13:03:10;;;;;;;42.93;14.57;;;;;2.50;97301.00;;;;8336441;28;20228;-82
2023/01/25 13:07:25;;;;;;;34.20;12.43;;;;;2.60;97287.00;;;;8336442;28;20197;-78
2023/01/25 13:11:33;;;;;;;35.53;12.80;;;;;2.60;97291.00;;;;8336605;28;20189;-78
2023/01/25 13:15:42;;;;;;;34.27;12.73;;;;;2.60;97285.00;;;;8335293;28;20255;-78
2023/01/25 13:19:45;;;;;;;37.33;13.20;;;;;2.70;97275.00;;;;8334014;28;20226;-80
2023/01/25 13:24:11;;;;;;;37.27;12.47;;;;;2.80;97262.00;;;;8336334;28;20779;-81
2023/01/25 13:28:45;;;;;;;86.07;39.23;;;;;2.80;97260.00;;;;8335510;28;20200;-81
2023/01/25 13:33:02;;;;;;;38.13;12.63;;;;;2.80;97260.00;;;;8335923;28;20711;-90
2023/01/25 13:37:17;;;;;;;35.67;12.60;;;;;2.60;97259.00;;;;8333603;28;20290;-85
2023/01/25 13:41:21;;;;;;;36.00;12.83;;;;;2.50;97258.00;;;;8336380;28;20512;-80
2023/01/25 13:45:32;;;;;;;39.73;13.03;;;;;2.50;97244.00;;;;8335462;28;20188;-80
2023/01/25 13:49:41;;;;;;;38.47;13.70;;;;;2.40;97241.00;;;;8335308;28;20516;-82
2023/01/25 13:53:55;;;;;;;33.63;12.40;;;;;2.40;97237.00;;;;8333904;28;20228;-82
2023/01/25 13:58:09;;;;;;;32.63;12.20;;;;;2.40;97225.00;;;;8335141;28;20288;-82
2023/01/25 14:02:20;;;;;;;40.23;12.87;;;;;2.30;97214.00;;;;8334297;28;20242;-81
2023/01/25 14:06:29;;;;;;;34.17;11.77;;;;;2.20;97221.00;;;;8334823;28;20190;-82
2023/01/25 14:10:32;;;;;;;30.37;12.17;;;;;2.20;97221.00;;;;8334237;28;20200;-81
2023/01/25 14:14:36;;;;;;;35.00;12.40;;;;;2.20;97230.00;;;;8333133;28;20207;-81
2023/01/25 14:18:44;;;;;;;33.37;13.33;;;;;2.20;97217.00;;;;8334704;28;20229;-82
2023/01/25 14:22:50;;;;;;;39.20;12.90;;;;;2.40;97211.00;;;;8333165;28;20200;-81
2023/01/25 14:26:54;;;;;;;47.33;15.93;;;;;2.40;97214.00;;;;8334195;28;20200;-81
2023/01/25 14:31:00;;;;;;;55.57;20.40;;;;;2.20;97216.00;;;;8332353;28;20438;-81
2023/01/25 14:35:39;;;;;;;35.57;12.73;;;;;2.00;97221.00;;;;8334971;28;20287;-80
2023/01/25 14:40:12;;;;;;;33.60;13.63;;;;;2.00;97212.00;;;;8327522;28;20664;-77
2023/01/25 14:44:16;;;;;;;33.43;13.33;;;;;2.00;97201.00;;;;8333329;28;20208;-77
2023/01/25 14:48:40;;;;;;;34.37;12.60;;;;;2.00;97201.00;;;;8333766;28;20288;-77
2023/01/25 14:52:48;;;;;;;34.60;13.73;;;;;2.10;97196.00;;;;8330607;28;20468;-77
2023/01/25 14:56:59;;;;;;;40.13;14.20;;;;;2.10;97203.00;;;;8332604;28;20647;-77
2023/01/25 15:01:03;;;;;;;30.63;12.20;;;;;2.10;97193.00;;;;8332028;28;20574;-77
2023/01/25 15:05:22;;;;;;;33.77;13.17;;;;;2.10;97183.00;;;;8332995;28;20707;-77
2023/01/25 15:09:38;;;;;;;32.57;12.20;;;;;2.00;97187.00;;;;8332353;28;20655;-77
2023/01/25 15:14:01;;;;;;;40.23;14.37;;;;;2.10;97181.00;;;;8328823;28;20189;-77
2023/01/25 15:18:04;;;;;;;54.10;19.43;;;;;2.20;97181.00;;;;8329236;28;20292;-77
2023/01/25 15:22:08;;;;;;;31.97;13.87;;;;;2.20;97174.00;;;;8331662;28;20251;-77
2023/01/25 15:26:18;;;;;;;32.90;13.77;;;;;2.20;97171.00;;;;8331878;28;20251;-77
2023/01/25 15:30:21;;;;;;;30.97;13.23;;;;;2.20;97172.00;;;;8329088;28;20197;-77
2023/01/25 15:34:32;;;;;;;34.60;13.97;;;;;2.20;97168.00;;;;8328287;28;20772;-80
2023/01/25 15:38:35;;;;;;;35.20;12.97;;;;;2.20;97157.00;;;;8327603;28;20661;-80
2023/01/25 15:42:40;;;;;;;34.87;13.03;;;;;2.20;97155.00;;;;8330640;28;20246;-79
2023/01/25 15:46:50;;;;;;;36.43;15.73;;;;;2.10;97153.00;;;;8331803;28;20200;-79
2023/01/25 15:50:56;;;;;;;34.70;14.30;;;;;2.20;97146.00;;;;8330145;28;20531;-79
2023/01/25 15:55:01;;;;;;;38.30;14.67;;;;;2.30;97155.00;;;;8331366;28;20277;-79
2023/01/25 15:59:08;;;;;;;129.53;59.67;;;;;2.30;97153.00;;;;8329440;28;20311;-78
2023/01/25 16:03:12;;;;;;;76.43;36.20;;;;;2.20;97145.00;;;;8331290;28;20220;-79
2023/01/25 16:07:21;;;;;;;519.27;242.83;;;;;2.20;97143.00;;;;8329474;28;20199;-80
2023/01/25 16:11:25;;;;;;;109.90;48.13;;;;;2.20;97140.00;;;;8332054;28;20209;-79
2023/01/25 16:15:34;;;;;;;112.77;48.90;;;;;2.20;97136.00;;;;8331097;28;20253;-78
2023/01/25 16:19:40;;;;;;;65.50;27.07;;;;;2.30;97124.00;;;;8331744;28;20227;-78
2023/01/25 16:23:45;;;;;;;67.83;28.07;;;;;2.30;97127.00;;;;8330345;28;20194;-78
2023/01/25 16:27:49;;;;;;;91.80;36.90;;;;;2.20;97118.00;;;;8326990;28;20201;-78
2023/01/25 16:31:54;;;;;;;244.07;90.63;;;;;2.20;97107.00;;;;8325818;28;20201;-78
2023/01/25 16:36:04;;;;;;;60.53;24.27;;;;;2.20;97098.00;;;;8330273;28;20586;-79
2023/01/25 16:40:20;;;;;;;41.50;16.13;;;;;2.20;97100.00;;;;8329653;28;20232;-79
2023/01/25 16:44:24;;;;;;;43.13;16.20;;;;;2.10;97099.00;;;;8328921;28;20201;-79
2023/01/25 16:48:35;;;;;;;49.40;21.27;;;;;2.20;97107.00;;;;8330661;28;20335;-78
2023/01/25 16:52:40;;;;;;;53.27;23.13;;;;;2.20;97100.00;;;;8314191;28;20185;-79
2023/01/25 16:56:48;;;;;;;50.27;21.70;;;;;2.10;97087.00;;;;8337769;28;20565;-78
2023/01/25 17:00:51;;;;;;;53.20;21.23;;;;;2.10;97085.00;;;;8336303;28;20577;-79
2023/01/25 17:04:56;;;;;;;47.30;17.13;;;;;2.20;97074.00;;;;8336188;28;20697;-79
2023/01/25 17:13:26;;;;;;;38.33;16.37;;;;;2.20;97065.00;;;;8333890;28;20511;-78
2023/01/25 17:17:30;;;;;;;64.13;29.63;;;;;2.20;97065.00;;;;8335749;28;20543;-79
2023/01/25 17:21:34;;;;;;;53.63;19.00;;;;;2.20;97068.00;;;;8335571;28;20200;-79
2023/01/25 17:25:38;;;;;;;43.30;17.53;;;;;2.20;97065.00;;;;8335271;28;20199;-80
2023/01/25 17:29:44;;;;;;;53.37;18.83;;;;;2.20;97064.00;;;;8336195;28;20206;-80
2023/01/25 17:33:51;;;;;;;55.43;19.20;;;;;2.10;97072.00;;;;8335599;28;20291;-79
2023/01/25 17:37:59;;;;;;;49.40;18.63;;;;;2.10;97068.00;;;;8335477;28;20223;-79
2023/01/25 17:42:07;;;;;;;51.07;17.20;;;;;2.10;97065.00;;;;8335743;28;20226;-79
2023/01/25 17:46:12;;;;;;;56.43;18.73;;;;;2.10;97062.00;;;;8336553;28;20573;-80
2023/01/25 17:50:15;;;;;;;49.07;18.20;;;;;2.10;97053.00;;;;8335581;28;20204;-80
2023/01/25 17:54:20;;;;;;;46.33;16.67;;;;;2.10;97045.00;;;;8333930;28;20201;-80
2023/01/25 17:58:24;;;;;;;49.10;18.00;;;;;2.00;97038.00;;;;8334863;28;20219;-80
2023/01/25 18:02:27;;;;;;;51.40;18.50;;;;;1.90;97046.00;;;;8334518;28;20342;-80
2023/01/25 18:06:31;;;;;;;46.93;17.40;;;;;1.80;97049.00;;;;8333949;28;20198;-84
2023/01/25 18:10:35;;;;;;;58.00;18.47;;;;;1.90;97040.00;;;;8334564;28;20697;-83
2023/01/25 18:14:43;;;;;;;53.37;17.07;;;;;1.90;97044.00;;;;8333789;28;20645;-83
2023/01/25 18:18:47;;;;;;;58.00;18.00;;;;;1.90;97038.00;;;;8332020;28;20219;-84
2023/01/25 18:22:50;;;;;;;57.07;18.90;;;;;1.80;97025.00;;;;8335853;28;20202;-83
2023/01/25 18:27:06;;;;;;;63.70;20.80;;;;;1.70;97021.00;;;;8334207;28;20288;-84
2023/01/25 18:31:10;;;;;;;58.03;20.00;;;;;1.70;97020.00;;;;8333127;28;20633;-92
2023/01/25 18:35:16;;;;;;;67.77;21.33;;;;;1.80;97021.00;;;;8333502;28;20194;-85
2023/01/25 18:39:19;;;;;;;93.33;25.17;;;;;1.80;97018.00;;;;8334026;28;20240;-85
2023/01/25 18:43:27;;;;;;;69.13;21.83;;;;;1.80;97009.00;;;;8333853;28;20199;-85
2023/01/25 18:47:34;;;;;;;55.10;19.07;;;;;1.80;97005.00;;;;8332106;28;20245;-84
2023/01/25 18:51:38;;;;;;;55.57;18.63;;;;;1.90;97009.00;;;;8332574;28;20539;-85
2023/01/25 18:56:02;;;;;;;49.80;18.67;;;;;1.90;97004.00;;;;8334159;28;20629;-85
2023/01/25 19:00:13;;;;;;;66.77;20.90;;;;;2.00;97000.00;;;;8333466;28;20215;-86
2023/01/25 19:04:17;;;;;;;62.17;19.13;;;;;2.00;96976.00;;;;8332970;28;20228;-86
2023/01/25 19:08:20;;;;;;;63.83;20.50;;;;;2.00;96965.00;;;;8331293;28;20278;-86
2023/01/25 19:12:26;;;;;;;57.93;18.60;;;;;1.90;96960.00;;;;8332734;28;20259;-85
2023/01/25 19:16:34;;;;;;;69.57;22.07;;;;;1.90;96967.00;;;;8331063;28;20202;-85
2023/01/25 19:20:38;;;;;;;65.70;20.33;;;;;1.90;96959.00;;;;8331963;28;20224;-85
2023/01/25 19:24:42;;;;;;;57.23;18.50;;;;;1.90;96953.00;;;;8332861;28;20539;-85
2023/01/25 19:28:48;;;;;;;54.00;18.00;;;;;1.90;96967.00;;;;8333024;28;20210;-85
2023/01/25 19:32:54;;;;;;;63.30;20.53;;;;;1.90;96955.00;;;;8329122;28;20314;-85
2023/01/25 19:36:59;;;;;;;66.10;20.83;;;;;2.00;96951.00;;;;8332964;28;20516;-86
2023/01/25 19:41:08;;;;;;;67.77;21.27;;;;;2.00;96960.00;;;;8332152;28;20266;-86
2023/01/25 19:45:11;;;;;;;59.57;20.07;;;;;2.00;96960.00;;;;8331875;28;20248;-86
2023/01/25 19:49:23;;;;;;;64.23;20.67;;;;;1.90;96960.00;;;;8332690;28;20221;-86
2023/01/25 19:53:30;;;;;;;72.90;20.57;;;;;1.80;96965.00;;;;8331944;28;20200;-87
2023/01/25 19:57:33;;;;;;;71.23;21.50;;;;;1.80;96954.00;;;;8330396;28;20223;-80
2023/01/25 20:01:42;;;;;;;91.27;21.93;;;;;1.80;96947.00;;;;8333261;28;20605;-77
2023/01/25 20:06:01;;;;;;;78.10;20.87;;;;;1.90;96940.00;;;;8331418;28;20318;-77
2023/01/25 20:10:05;;;;;;;91.90;21.93;;;;;1.90;96941.00;;;;8331001;28;20194;-77
2023/01/25 20:14:11;;;;;;;71.40;20.57;;;;;1.90;96927.00;;;;8331667;28;20195;-77
2023/01/25 20:18:14;;;;;;;92.83;20.07;;;;;1.90;96931.00;;;;8330422;28;20622;-77
2023/01/25 20:22:18;;;;;;;338.13;27.83;;;;;1.90;96919.00;;;;8331759;28;20562;-76
2023/01/25 20:26:25;;;;;;;76.30;20.03;;;;;1.90;96917.00;;;;8331109;28;20235;-77
2023/01/25 20:30:34;;;;;;;83.50;18.83;;;;;2.00;96917.00;;;;8338403;28;20196;-77